Time;durP1;ratioP1;P1;durP2;ratioP2;P2;SDS_P1;SDS_P2;PMS_P1;PMS_P2;Temp;Humidity;BMP_temperature;BMP_pressure;BME280_temperature;BME280_humidity;BME280_pressure;Samples;Min_cycle;Max_cycle;Signal;HPM_P1;HPM_P2
2021/07/26 00:04:01;;;;;;;4.13;2.80;;;;;;;26.24;39.16;95205.75;4907652;28;20063;-71
2021/07/26 00:06:27;;;;;;;4.13;2.80;;;;;;;26.25;39.29;95196.31;4925652;29;20110;-70
2021/07/26 00:08:52;;;;;;;5.32;3.08;;;;;;;26.23;39.17;95187.13;4939962;29;20097;-70
2021/07/26 00:11:17;;;;;;;4.30;2.75;;;;;;;26.19;39.13;95192.91;4946395;29;20043;-71
2021/07/26 00:13:43;;;;;;;4.10;2.80;;;;;;;26.16;39.30;95199.44;4943073;29;20485;-70
2021/07/26 00:16:08;;;;;;;5.65;2.97;;;;;;;26.08;39.41;95187.59;4930287;29;20054;-71
2021/07/26 00:18:34;;;;;;;6.15;2.45;;;;;;;26.16;39.20;95185.75;4946107;29;20039;-70
2021/07/26 00:21:00;;;;;;;4.63;2.95;;;;;;;26.13;39.21;95186.78;4946938;29;20035;-70
2021/07/26 00:23:25;;;;;;;3.30;2.45;;;;;;;26.14;39.29;95190.25;4945962;29;20066;-70
2021/07/26 00:25:51;;;;;;;4.00;2.70;;;;;;;26.13;39.46;95200.47;4947318;29;20035;-70
2021/07/26 00:28:16;;;;;;;3.42;2.72;;;;;;;26.13;39.16;95203.22;4944941;29;20042;-71
2021/07/26 00:30:42;;;;;;;4.05;2.90;;;;;;;26.12;39.20;95204.47;4945775;29;20031;-71
2021/07/26 00:36:19;;;;;;;5.35;2.72;;;;;;;26.04;39.62;95214.56;4948496;29;20034;-70
2021/07/26 00:38:45;;;;;;;3.90;2.53;;;;;;;26.06;39.71;95208.56;4931448;29;20035;-70
2021/07/26 00:41:10;;;;;;;4.60;2.40;;;;;;;26.01;39.59;95212.88;4946024;29;20445;-70
2021/07/26 00:43:36;;;;;;;5.72;2.50;;;;;;;26.00;40.02;95207.91;4948218;29;20134;-70
2021/07/26 00:46:01;;;;;;;4.38;2.58;;;;;;;26.03;39.72;95207.59;4949499;29;20019;-70
2021/07/26 00:48:26;;;;;;;3.72;2.17;;;;;;;26.01;39.81;95214.88;4945025;29;20027;-71
2021/07/26 00:50:53;;;;;;;3.72;2.50;;;;;;;25.98;39.87;95210.44;4931211;29;20589;-70
2021/07/26 00:53:18;;;;;;;4.38;2.30;;;;;;;26.00;40.00;95207.91;4913254;29;20066;-70
2021/07/26 00:55:43;;;;;;;3.45;2.35;;;;;;;25.98;40.03;95200.22;4931847;29;20494;-70
2021/07/26 00:58:09;;;;;;;5.35;2.42;;;;;;;25.98;39.91;95200.22;4933025;29;20525;-70
2021/07/26 01:00:34;;;;;;;3.38;2.45;;;;;;;26.01;40.23;95201.91;4931893;29;20103;-70
2021/07/26 01:03:00;;;;;;;3.72;2.28;;;;;;;26.04;39.89;95203.63;4949767;29;20051;-70
2021/07/26 01:05:25;;;;;;;4.28;2.53;;;;;;;26.01;39.95;95204.66;4931062;29;20494;-70
2021/07/26 01:07:56;;;;;;;3.03;2.20;;;;;;;25.99;40.08;95201.72;4949305;29;20031;-70
2021/07/26 01:10:22;;;;;;;3.08;2.20;;;;;;;25.92;40.19;95207.78;4932483;29;20019;-70
2021/07/26 01:12:47;;;;;;;3.50;2.40;;;;;;;25.87;40.16;95189.47;4941720;29;20070;-70
2021/07/26 01:15:13;;;;;;;3.45;2.38;;;;;;;25.90;40.12;95193.91;4932538;29;20041;-70
2021/07/26 01:18:17;;;;;;;3.78;2.63;;;;;;;25.88;40.23;95190.91;4948156;28;20030;-70
2021/07/26 01:20:42;;;;;;;4.53;2.17;;;;;;;25.62;40.23;95151.03;4919337;29;20035;-71
2021/07/26 01:23:08;;;;;;;5.20;2.38;;;;;;;25.84;40.34;95182.28;4947672;28;20118;-70
2021/07/26 01:25:37;;;;;;;3.55;2.17;;;;;;;25.89;40.39;95197.16;4950093;29;20449;-70
2021/07/26 01:28:02;;;;;;;4.17;2.10;;;;;;;25.90;40.47;95209.56;4948487;29;20039;-70
2021/07/26 01:30:28;;;;;;;3.30;2.03;;;;;;;25.84;40.57;95212.41;4947496;28;20039;-70
2021/07/26 01:32:53;;;;;;;2.63;2.00;;;;;;;25.82;40.71;95214.91;4949526;29;20034;-70
2021/07/26 01:35:19;;;;;;;3.80;2.20;;;;;;;25.81;40.81;95229.09;4949594;29;20027;-70
2021/07/26 01:37:44;;;;;;;3.50;2.53;;;;;;;25.78;41.02;95229.41;4944815;29;20597;-70
2021/07/26 01:40:11;;;;;;;5.45;2.67;;;;;;;25.78;40.92;95223.94;4949311;29;20083;-69
2021/07/26 01:42:43;;;;;;;4.65;2.72;;;;;;;25.74;41.19;95223.47;4948855;29;20436;-69
2021/07/26 01:45:12;;;;;;;5.38;3.20;;;;;;;25.71;41.22;95219.06;4930090;29;20035;-70
2021/07/26 01:47:44;;;;;;;8.37;2.83;;;;;;;25.64;41.37;95220.41;4938225;29;20031;-69
2021/07/26 01:50:10;;;;;;;7.95;3.03;;;;;;;25.63;41.47;95229.09;4931733;29;20553;-70
2021/07/26 01:52:35;;;;;;;5.55;2.95;;;;;;;25.61;41.69;95234.34;4948974;29;20041;-69
2021/07/26 01:55:01;;;;;;;4.45;3.30;;;;;;;25.63;41.70;95240.03;4949072;29;20031;-70
2021/07/26 01:57:27;;;;;;;4.13;3.20;;;;;;;25.56;41.69;95246.84;4929646;29;20027;-71
2021/07/26 01:59:52;;;;;;;4.88;3.40;;;;;;;25.51;41.82;95233.25;4932111;29;20033;-70
2021/07/26 02:02:18;;;;;;;5.03;3.92;;;;;;;25.45;41.99;95235.31;4948001;29;20026;-69
2021/07/26 02:04:43;;;;;;;3.70;3.00;;;;;;;25.40;42.02;95234.13;4942205;29;20600;-70
2021/07/26 02:07:09;;;;;;;6.05;3.60;;;;;;;25.35;42.11;95242.38;4936556;29;20039;-70
2021/07/26 02:09:35;;;;;;;4.70;3.33;;;;;;;25.33;42.47;95228.50;4948010;29;20486;-70
2021/07/26 02:12:03;;;;;;;4.43;3.60;;;;;;;25.29;42.27;95244.47;4948139;29;20082;-70
2021/07/26 02:14:29;;;;;;;4.47;3.72;;;;;;;25.26;42.28;95253.72;4949036;29;20110;-70
2021/07/26 02:16:54;;;;;;;5.13;3.65;;;;;;;25.24;42.87;95258.22;4946587;29;20085;-70
2021/07/26 02:19:20;;;;;;;5.63;3.42;;;;;;;25.19;43.03;95262.47;4948882;29;20023;-70
2021/07/26 02:21:45;;;;;;;6.30;4.03;;;;;;;25.17;43.36;95262.28;4948018;29;20516;-70
2021/07/26 02:24:11;;;;;;;5.03;3.45;;;;;;;25.13;43.21;95264.53;4947557;29;20031;-70
2021/07/26 02:26:36;;;;;;;4.35;3.60;;;;;;;25.11;43.57;95272.53;4948395;29;20030;-70
2021/07/26 02:29:02;;;;;;;7.30;3.55;;;;;;;25.05;43.23;95263.66;4944636;29;20035;-70
2021/07/26 02:31:27;;;;;;;5.57;3.35;;;;;;;25.08;43.50;95272.78;4948026;29;20059;-71
2021/07/26 02:33:53;;;;;;;6.97;4.30;;;;;;;25.03;43.60;95266.13;4947464;29;20039;-70
2021/07/26 02:36:18;;;;;;;5.03;3.83;;;;;;;24.94;43.57;95263.72;4940351;29;20032;-70
2021/07/26 02:38:44;;;;;;;5.78;3.60;;;;;;;24.96;43.81;95271.41;4930326;29;20536;-71
2021/07/26 02:41:13;;;;;;;7.00;3.65;;;;;;;24.97;43.99;95278.38;4928533;29;20430;-70
2021/07/26 02:43:39;;;;;;;7.75;4.03;;;;;;;24.96;44.09;95283.09;4931034;29;20485;-70
2021/07/26 02:46:05;;;;;;;8.10;4.20;;;;;;;24.87;43.93;95269.78;4946870;29;20031;-70
2021/07/26 02:48:34;;;;;;;5.55;3.83;;;;;;;24.91;44.02;95272.94;4948219;29;20027;-71
2021/07/26 02:51:00;;;;;;;4.90;4.13;;;;;;;24.91;44.13;95272.22;4929870;29;20603;-71
2021/07/26 02:53:25;;;;;;;6.97;4.10;;;;;;;24.85;44.08;95266.81;4947601;29;20019;-71
2021/07/26 02:55:51;;;;;;;5.97;4.10;;;;;;;24.86;44.48;95273.75;4946085;29;20042;-70
2021/07/26 02:58:16;;;;;;;6.32;4.00;;;;;;;24.84;44.43;95275.50;4947676;28;20062;-70
2021/07/26 03:00:45;;;;;;;5.43;3.95;;;;;;;24.83;44.23;95288.44;4947168;29;20027;-71
2021/07/26 03:03:11;;;;;;;5.63;4.20;;;;;;;24.23;44.71;95200.88;4946736;29;20138;-70
2021/07/26 03:05:36;;;;;;;5.50;3.88;;;;;;;24.76;44.85;95290.25;4947345;29;20130;-71
2021/07/26 03:08:01;;;;;;;6.03;4.50;;;;;;;24.73;44.65;95274.91;4945225;29;20066;-70
2021/07/26 03:10:27;;;;;;;5.13;3.83;;;;;;;24.68;44.62;95281.13;4947341;29;20105;-71
2021/07/26 03:12:53;;;;;;;8.35;4.50;;;;;;;24.63;44.65;95287.41;4925687;29;20043;-70
2021/07/26 03:15:19;;;;;;;8.60;4.50;;;;;;;24.63;45.27;95287.41;4928446;29;20047;-70
2021/07/26 03:17:45;;;;;;;6.20;4.10;;;;;;;24.32;45.11;95249.69;4943058;29;20572;-70
2021/07/26 03:20:11;;;;;;;7.25;4.32;;;;;;;24.58;45.50;95286.19;4914612;29;20051;-70
2021/07/26 03:23:10;;;;;;;6.75;4.07;;;;;;;24.55;45.65;95287.22;4947055;29;20034;-70
2021/07/26 03:25:40;;;;;;;5.82;3.92;;;;;;;24.56;45.60;95290.72;4947942;29;20427;-70
2021/07/26 03:28:05;;;;;;;6.22;4.03;;;;;;;24.53;45.44;95295.19;4946031;29;20035;-71
2021/07/26 03:30:31;;;;;;;8.23;4.10;;;;;;;24.51;45.77;95291.47;4945993;29;20055;-70
2021/07/26 03:32:56;;;;;;;5.65;4.18;;;;;;;24.50;45.48;95285.28;4946138;29;20458;-70
2021/07/26 03:35:22;;;;;;;9.23;4.57;;;;;;;24.50;45.98;95290.00;4947586;29;20031;-70
2021/07/26 03:37:48;;;;;;;6.70;4.50;;;;;;;24.47;46.22;95288.31;4933421;29;20079;-70
2021/07/26 03:40:14;;;;;;;6.55;4.30;;;;;;;24.45;46.17;95293.50;4928435;29;20486;-70
2021/07/26 03:42:40;;;;;;;7.35;4.40;;;;;;;24.45;46.35;95293.50;4926837;29;20106;-70
2021/07/26 03:45:07;;;;;;;6.60;4.18;;;;;;;24.45;45.92;95301.69;4927842;29;20038;-70
2021/07/26 03:47:32;;;;;;;7.18;4.35;;;;;;;24.40;46.44;95297.03;4936856;29;20027;-70
2021/07/26 03:49:57;;;;;;;6.93;4.25;;;;;;;24.40;46.34;95308.69;4945131;29;20046;-70
2021/07/26 03:52:23;;;;;;;5.03;4.20;;;;;;;24.41;45.69;95320.38;4928587;29;20035;-71
2021/07/26 03:54:48;;;;;;;6.18;4.32;;;;;;;24.40;45.85;95307.97;4927860;29;20066;-70
2021/07/26 03:57:14;;;;;;;5.88;4.00;;;;;;;24.26;46.20;95289.94;4926269;29;20039;-70
2021/07/26 03:59:39;;;;;;;6.30;4.05;;;;;;;24.35;45.89;95322.41;4927515;29;20038;-70
2021/07/26 04:02:05;;;;;;;5.82;4.10;;;;;;;24.34;46.18;95313.44;4942679;29;20039;-70
2021/07/26 04:04:30;;;;;;;6.15;4.30;;;;;;;24.34;46.54;95317.44;4947198;29;20517;-70
2021/07/26 04:06:59;;;;;;;4.53;4.10;;;;;;;24.33;46.75;95313.97;4944624;29;20490;-70
2021/07/26 04:09:29;;;;;;;7.33;4.60;;;;;;;24.34;46.49;95317.44;4946997;28;20038;-71
2021/07/26 04:12:03;;;;;;;7.32;4.32;;;;;;;24.31;46.37;95305.50;4948712;29;20623;-71
2021/07/26 04:14:30;;;;;;;5.78;4.25;;;;;;;24.30;46.57;95314.94;4922996;29;20114;-71
2021/07/26 04:16:56;;;;;;;7.57;4.47;;;;;;;24.31;46.42;95305.50;4946188;29;20800;-71
2021/07/26 04:19:22;;;;;;;7.65;4.65;;;;;;;24.35;46.79;95306.03;4949800;29;20023;-71
2021/07/26 04:21:47;;;;;;;7.38;4.45;;;;;;;24.34;46.39;95304.53;4941865;29;20015;-71
2021/07/26 04:24:13;;;;;;;7.40;4.57;;;;;;;24.11;46.62;95281.38;4943497;29;20034;-71
2021/07/26 04:26:38;;;;;;;5.25;4.30;;;;;;;24.33;47.25;95313.97;4947694;29;20030;-71
2021/07/26 04:29:04;;;;;;;6.15;4.20;;;;;;;24.33;47.37;95313.97;4940690;29;20027;-71
2021/07/26 04:31:29;;;;;;;7.20;4.38;;;;;;;24.36;47.50;95315.66;4941514;29;20030;-71
2021/07/26 04:33:55;;;;;;;6.53;4.75;;;;;;;24.37;47.27;95314.44;4947462;29;20093;-70
2021/07/26 04:36:20;;;;;;;8.30;3.92;;;;;;;24.35;47.26;95314.94;4946760;29;20023;-71
2021/07/26 04:38:45;;;;;;;6.95;4.18;;;;;;;24.40;47.52;95327.06;4940995;29;20043;-77
2021/07/26 04:41:12;;;;;;;6.40;4.20;;;;;;;24.43;47.80;95328.78;4931032;29;20058;-75
2021/07/26 04:43:37;;;;;;;6.25;4.00;;;;;;;24.45;47.34;95334.47;4950431;29;20616;-76
2021/07/26 04:46:04;;;;;;;6.50;4.03;;;;;;;24.47;47.72;95326.53;4944239;29;20034;-79
2021/07/26 04:48:29;;;;;;;6.10;4.00;;;;;;;24.46;47.83;95327.75;4950508;29;20043;-78
2021/07/26 04:50:55;;;;;;;9.63;4.25;;;;;;;24.48;48.16;95330.72;4946443;28;20035;-76
2021/07/26 04:53:20;;;;;;;5.70;4.10;;;;;;;24.48;48.59;95330.72;4939910;29;20039;-77
2021/07/26 04:55:46;;;;;;;6.65;4.20;;;;;;;24.51;48.28;95337.88;4951003;29;20035;-77
2021/07/26 04:58:11;;;;;;;7.35;4.03;;;;;;;24.52;48.68;95347.56;4950185;29;20023;-78
2021/07/26 05:00:37;;;;;;;5.40;3.78;;;;;;;24.57;48.27;95344.81;4952992;29;20178;-79
2021/07/26 05:03:07;;;;;;;7.32;4.10;;;;;;;24.58;48.27;95340.06;4956052;29;20304;-79
2021/07/26 05:05:37;;;;;;;7.90;3.97;;;;;;;24.62;48.45;95340.53;4957368;29;20027;-75
2021/07/26 05:08:02;;;;;;;;;;;;;;;24.66;48.15;95335.53;4953671;29;20054;-75
2021/07/26 05:10:28;;;;;;;4.65;3.60;;;;;;;24.71;47.93;95342.94;4951972;29;20305;-75
2021/07/26 05:12:53;;;;;;;5.47;4.32;;;;;;;24.73;47.22;95346.63;4950663;29;20039;-75
2021/07/26 05:15:19;;;;;;;11.02;4.57;;;;;;;24.77;47.57;95346.34;4955819;29;20023;-75
2021/07/26 05:17:44;;;;;;;7.35;4.43;;;;;;;24.80;46.89;95345.34;4954033;29;20034;-75
2021/07/26 05:20:10;;;;;;;7.55;4.72;;;;;;;24.85;47.00;95337.09;4949410;28;20082;-71
2021/07/26 05:22:37;;;;;;;5.68;4.20;;;;;;;24.91;47.37;95345.97;4946516;28;20089;-73
2021/07/26 05:25:02;;;;;;;7.47;4.78;;;;;;;24.93;47.13;95344.22;4936902;28;20043;-72
2021/07/26 05:27:28;;;;;;;8.70;5.28;;;;;;;24.97;47.14;95339.19;4933404;29;20082;-71
2021/07/26 05:29:53;;;;;;;7.93;4.80;;;;;;;24.83;47.82;95312.28;4939628;29;20027;-71
2021/07/26 05:32:19;;;;;;;8.55;5.32;;;;;;;25.04;47.45;95343.41;4925260;29;20514;-73
2021/07/26 05:34:46;;;;;;;8.48;5.72;;;;;;;25.08;46.77;95344.59;4944850;29;20082;-70
2021/07/26 05:37:11;;;;;;;7.70;5.13;;;;;;;25.15;46.98;95360.41;4948604;29;20070;-71
2021/07/26 05:39:37;;;;;;;9.02;5.30;;;;;;;25.22;46.90;95359.88;4939010;28;20023;-71
2021/07/26 05:42:02;;;;;;;9.60;5.30;;;;;;;25.31;47.04;95354.06;4932605;29;20023;-72
2021/07/26 05:44:28;;;;;;;10.45;5.50;;;;;;;25.20;46.54;95328.81;4941988;29;20034;-72
2021/07/26 05:46:54;;;;;;;11.23;5.50;;;;;;;25.46;46.78;95357.13;4930928;29;20042;-73
2021/07/26 05:49:19;;;;;;;8.93;4.90;;;;;;;25.56;46.04;95358.97;4948887;29;20530;-76
2021/07/26 05:51:45;;;;;;;10.50;5.55;;;;;;;25.64;45.97;95359.13;4948811;29;20030;-74
2021/07/26 05:54:10;;;;;;;10.77;5.45;;;;;;;25.74;45.35;95365.75;4946220;29;20111;-74
2021/07/26 05:56:46;;;;;;;14.73;6.40;;;;;;;25.83;45.39;95366.88;4948445;29;20512;-74
2021/07/26 05:59:12;;;;;;;11.38;5.70;;;;;;;25.99;44.87;95365.94;4946947;28;20031;-74
2021/07/26 06:01:50;;;;;;;8.10;5.35;;;;;;;25.98;44.47;95361.69;4947926;29;20042;-75
2021/07/26 06:04:15;;;;;;;9.45;5.03;;;;;;;26.08;44.37;95357.31;4948096;29;20051;-73
2021/07/26 06:06:42;;;;;;;9.10;5.85;;;;;;;26.12;44.44;95355.03;4946424;29;20544;-73
2021/07/26 06:09:08;;;;;;;7.70;5.13;;;;;;;26.22;44.42;95358.88;4930552;29;20513;-70
2021/07/26 06:11:34;;;;;;;10.98;4.78;;;;;;;26.38;43.60;95352.44;4942035;29;20035;-70
2021/07/26 06:13:59;;;;;;;10.43;4.90;;;;;;;26.50;43.87;95359.22;4947640;29;20045;-69
2021/07/26 06:16:25;;;;;;;7.45;4.53;;;;;;;26.55;44.01;95361.88;4947227;29;20031;-73
2021/07/26 06:18:50;;;;;;;9.95;4.53;;;;;;;26.40;44.09;95330.75;4947883;29;20197;-74
2021/07/26 06:21:16;;;;;;;12.65;5.03;;;;;;;26.65;43.60;95354.00;4934284;29;20035;-74
2021/07/26 06:23:41;;;;;;;8.27;4.32;;;;;;;26.65;43.43;95354.00;4946367;29;20058;-73
2021/07/26 06:26:07;;;;;;;6.38;4.38;;;;;;;26.75;43.31;95363.31;4931049;29;20568;-73
2021/07/26 06:28:33;;;;;;;9.32;4.53;;;;;;;26.43;43.39;95300.31;4947521;29;20031;-73
2021/07/26 06:31:00;;;;;;;8.95;4.18;;;;;;;26.64;43.42;95325.16;4947473;28;20106;-73
2021/07/26 06:33:26;;;;;;;8.95;4.50;;;;;;;26.87;43.08;95346.88;4928986;29;20053;-73
2021/07/26 06:35:51;;;;;;;9.30;4.45;;;;;;;26.90;43.39;95343.13;4947439;29;20650;-74
2021/07/26 06:38:16;;;;;;;8.27;4.03;;;;;;;26.93;43.28;95353.03;4929245;29;20027;-73
2021/07/26 06:40:45;;;;;;;7.20;4.15;;;;;;;26.95;43.06;95347.81;4929364;29;20019;-74
2021/07/26 06:43:11;;;;;;;8.82;4.30;;;;;;;26.95;43.07;95336.84;4944655;29;20034;-74
2021/07/26 06:45:36;;;;;;;8.18;4.03;;;;;;;26.95;43.20;95339.56;4945677;29;20023;-74
2021/07/26 06:48:02;;;;;;;6.70;4.40;;;;;;;26.96;43.40;95346.50;4950334;29;20027;-73
2021/07/26 06:50:27;;;;;;;6.90;3.95;;;;;;;26.99;43.02;95345.47;4943757;29;20115;-74
2021/07/26 06:52:53;;;;;;;7.97;4.20;;;;;;;27.00;43.52;95346.94;4947691;29;20034;-74
2021/07/26 06:55:18;;;;;;;6.70;4.15;;;;;;;26.88;43.74;95318.22;4935870;29;20411;-68
2021/07/26 06:57:44;;;;;;;10.13;4.25;;;;;;;27.04;43.77;95330.94;4945395;29;20035;-69
2021/07/26 07:00:10;;;;;;;7.00;3.72;;;;;;;27.05;43.46;95329.66;4944450;29;20027;-68
2021/07/26 07:02:36;;;;;;;6.63;3.88;;;;;;;27.02;43.66;95327.97;4936723;29;20055;-68
2021/07/26 07:05:01;;;;;;;6.45;4.68;;;;;;;26.87;43.70;95313.28;4947018;29;20046;-69
2021/07/26 07:07:27;;;;;;;6.97;3.60;;;;;;;27.02;42.88;95333.44;4946757;29;20090;-70
2021/07/26 07:09:55;;;;;;;5.60;3.35;;;;;;;26.88;42.58;95312.75;4947189;29;20050;-70
2021/07/26 07:12:21;;;;;;;8.05;3.78;;;;;;;26.72;43.03;95293.13;4947628;29;20034;-69
2021/07/26 07:14:46;;;;;;;6.22;3.55;;;;;;;27.05;42.90;95337.88;4945183;29;20034;-68
2021/07/26 07:17:12;;;;;;;7.28;4.00;;;;;;;27.02;43.05;95327.97;4941857;29;20027;-68
2021/07/26 07:19:41;;;;;;;5.65;3.35;;;;;;;26.96;43.43;95323.84;4937283;29;20071;-68
2021/07/26 07:22:07;;;;;;;4.57;2.90;;;;;;;27.00;42.95;95319.53;4945370;29;20038;-69
2021/07/26 07:24:33;;;;;;;6.32;3.95;;;;;;;27.03;43.51;95323.97;4945832;29;20023;-68
2021/07/26 07:26:58;;;;;;;5.57;3.50;;;;;;;27.03;43.68;95323.25;4939502;29;20062;-68
2021/07/26 07:29:23;;;;;;;5.57;3.28;;;;;;;27.03;43.36;95332.19;4932427;28;20047;-70
2021/07/26 07:31:50;;;;;;;4.78;3.15;;;;;;;27.04;43.47;95335.66;4966931;28;20037;-68
2021/07/26 07:34:15;;;;;;;7.20;3.47;;;;;;;27.04;43.71;95330.94;4963290;28;20101;-69
2021/07/26 07:36:42;;;;;;;6.43;3.55;;;;;;;27.01;43.08;95329.25;4966805;28;20078;-68
2021/07/26 07:39:08;;;;;;;6.88;3.78;;;;;;;26.94;43.77;95316.16;4960159;28;20031;-68
2021/07/26 07:41:34;;;;;;;4.82;3.45;;;;;;;27.04;43.48;95325.47;4930530;29;20042;-68
2021/07/26 07:43:59;;;;;;;6.65;3.45;;;;;;;27.06;43.21;95338.63;4947123;28;20058;-68
2021/07/26 07:46:25;;;;;;;6.63;3.38;;;;;;;27.07;43.45;95329.13;4951556;28;20063;-68
2021/07/26 07:48:50;;;;;;;6.28;3.65;;;;;;;27.07;43.40;95345.59;4969987;28;20027;-68
2021/07/26 07:51:18;;;;;;;5.32;2.92;;;;;;;27.08;43.62;95342.31;4968052;28;20034;-68
2021/07/26 07:53:43;;;;;;;4.80;2.90;;;;;;;27.05;43.30;95335.13;4967140;28;20042;-68
2021/07/26 07:56:09;;;;;;;4.63;3.08;;;;;;;27.10;43.68;95339.81;4953864;28;20019;-68
2021/07/26 07:58:35;;;;;;;4.85;3.05;;;;;;;27.11;43.56;95341.25;4969293;28;20493;-68
2021/07/26 08:01:00;;;;;;;5.45;3.40;;;;;;;27.13;43.43;95338.75;4970481;28;20089;-68
2021/07/26 08:03:26;;;;;;;5.05;2.90;;;;;;;27.13;43.45;95338.75;4970305;28;20463;-68
2021/07/26 08:05:52;;;;;;;4.03;2.80;;;;;;;27.14;43.41;95337.47;4970655;28;20039;-68
2021/07/26 08:08:17;;;;;;;5.82;3.53;;;;;;;27.14;43.05;95334.72;4970313;28;20492;-67
2021/07/26 08:10:43;;;;;;;6.05;3.60;;;;;;;27.15;43.42;95325.25;4967395;28;20030;-68
2021/07/26 08:13:08;;;;;;;4.30;3.10;;;;;;;27.16;43.57;95324.00;4964806;28;20109;-68
2021/07/26 08:15:34;;;;;;;3.95;3.20;;;;;;;27.17;42.88;95328.19;4969892;28;20047;-68
2021/07/26 08:17:59;;;;;;;6.40;3.30;;;;;;;27.18;43.06;95324.19;4969721;28;20030;-68
2021/07/26 08:20:25;;;;;;;4.65;3.15;;;;;;;27.18;43.06;95323.47;4950822;28;20020;-68
2021/07/26 08:22:50;;;;;;;4.60;2.80;;;;;;;27.18;42.95;95313.22;4950601;29;20039;-68
2021/07/26 08:25:16;;;;;;;4.43;2.90;;;;;;;27.18;43.25;95313.22;4950435;29;20046;-68
2021/07/26 08:27:49;;;;;;;5.15;3.00;;;;;;;27.19;42.83;95311.22;4950638;29;20075;-68
2021/07/26 08:30:18;;;;;;;5.00;2.83;;;;;;;27.19;43.61;95309.22;4974404;28;20050;-67
2021/07/26 08:32:44;;;;;;;6.05;3.45;;;;;;;27.22;43.16;95313.66;4937307;28;20045;-68
2021/07/26 08:35:09;;;;;;;8.55;3.15;;;;;;;27.25;43.20;95301.63;4969083;28;20666;-68
2021/07/26 08:37:35;;;;;;;5.13;3.40;;;;;;;27.24;43.24;95305.63;4969376;28;20031;-68
2021/07/26 08:40:01;;;;;;;6.47;3.50;;;;;;;27.37;42.75;95313.88;4965772;28;20062;-71
2021/07/26 08:42:28;;;;;;;5.30;2.95;;;;;;;27.29;41.51;95313.00;4969126;28;20417;-68
2021/07/26 08:44:53;;;;;;;6.72;3.35;;;;;;;27.12;41.29;95304.38;4964882;28;20050;-68
2021/07/26 08:47:19;;;;;;;8.35;3.83;;;;;;;26.99;40.37;95304.34;4960737;28;20978;-68
2021/07/26 08:49:44;;;;;;;6.15;3.20;;;;;;;26.67;41.54;95270.03;4964737;28;20039;-72
2021/07/26 08:52:10;;;;;;;4.50;3.25;;;;;;;26.77;41.29;95302.00;4933583;28;20500;-70
2021/07/26 08:54:35;;;;;;;5.85;2.80;;;;;;;26.66;42.15;95308.91;4948740;28;20046;-69
2021/07/26 08:57:01;;;;;;;6.07;3.25;;;;;;;26.63;42.73;95307.22;4967517;28;20035;-69
2021/07/26 08:59:26;;;;;;;6.80;3.20;;;;;;;26.58;42.95;95310.81;4968841;28;20033;-70
2021/07/26 09:01:53;;;;;;;4.22;2.90;;;;;;;26.60;44.88;95309.00;4967887;28;20482;-69
2021/07/26 09:04:19;;;;;;;6.30;3.13;;;;;;;26.66;46.16;95306.19;4957875;28;20055;-73
2021/07/26 09:06:44;;;;;;;5.43;3.03;;;;;;;26.75;45.82;95294.81;4964617;28;20105;-71
2021/07/26 09:09:10;;;;;;;5.22;2.95;;;;;;;26.76;45.54;95300.50;4955400;28;20123;-70
2021/07/26 09:11:45;;;;;;;5.25;3.20;;;;;;;26.81;45.33;95302.41;4964890;28;20034;-70
2021/07/26 09:14:11;;;;;;;4.05;2.97;;;;;;;26.84;45.61;95298.59;4966011;28;20022;-70
2021/07/26 09:16:36;;;;;;;4.95;3.38;;;;;;;26.59;45.98;95262.94;4975673;28;20093;-69
2021/07/26 09:19:03;;;;;;;4.00;2.90;;;;;;;26.95;46.18;95301.19;4953249;28;20030;-70
2021/07/26 09:21:52;;;;;;;3.92;2.60;;;;;;;26.99;46.11;95290.63;4955350;28;20023;-70
2021/07/26 09:24:28;;;;;;;4.17;2.93;;;;;;;26.93;45.67;95270.09;4961238;28;20073;-70
2021/07/26 09:27:06;;;;;;;6.88;3.33;;;;;;;27.09;45.48;95299.94;4968590;28;20456;-70
2021/07/26 09:29:32;;;;;;;4.20;3.10;;;;;;;27.11;45.12;95286.44;4968660;28;20030;-70
2021/07/26 09:32:05;;;;;;;3.55;2.50;;;;;;;27.19;45.29;95286.53;4968866;28;20109;-70
2021/07/26 09:34:30;;;;;;;4.70;2.60;;;;;;;27.15;45.11;95273.16;4968809;28;20026;-70
2021/07/26 09:36:56;;;;;;;4.55;3.20;;;;;;;27.28;44.72;95284.13;4966939;28;20019;-70
2021/07/26 09:39:26;;;;;;;3.92;2.63;;;;;;;27.29;44.33;95296.56;4956439;28;20027;-70
2021/07/26 09:41:53;;;;;;;4.28;2.95;;;;;;;27.30;44.41;95287.06;4968369;28;20425;-71
2021/07/26 09:44:22;;;;;;;5.63;2.80;;;;;;;27.35;44.29;95292.44;4968934;28;20553;-71
2021/07/26 09:46:48;;;;;;;4.70;2.70;;;;;;;27.12;43.86;95243.31;4968499;28;20042;-77
2021/07/26 09:49:14;;;;;;;4.55;2.70;;;;;;;26.97;43.47;95219.16;4961932;28;20031;-73
2021/07/26 09:51:40;;;;;;;4.53;2.80;;;;;;;27.50;43.20;95289.19;4945475;28;20510;-73
2021/07/26 09:54:06;;;;;;;4.55;2.75;;;;;;;27.58;43.47;95292.75;4955560;28;20041;-72
2021/07/26 09:56:34;;;;;;;4.25;2.47;;;;;;;27.63;42.98;95291.91;4953006;28;20045;-74
2021/07/26 09:59:01;;;;;;;4.15;2.92;;;;;;;27.66;42.75;95296.34;4961006;28;20058;-72
2021/07/26 10:01:27;;;;;;;2.92;2.20;;;;;;;27.72;43.08;95288.72;4967261;28;20026;-73
2021/07/26 10:03:53;;;;;;;4.70;2.80;;;;;;;27.52;42.54;95259.94;4966280;28;20536;-74
2021/07/26 10:06:18;;;;;;;6.25;2.67;;;;;;;27.55;42.68;95252.66;4949707;28;20027;-73
2021/07/26 10:08:44;;;;;;;3.83;2.72;;;;;;;27.83;42.70;95284.47;4949714;28;20505;-74
2021/07/26 10:11:10;;;;;;;3.60;2.67;;;;;;;27.89;42.51;95290.59;4966867;28;20532;-75
2021/07/26 10:13:38;;;;;;;3.35;2.40;;;;;;;27.90;42.03;95289.28;4966844;28;20026;-72
2021/07/26 10:16:04;;;;;;;4.68;2.55;;;;;;;27.96;42.05;95298.16;4955508;28;20031;-71
2021/07/26 10:18:29;;;;;;;3.63;2.42;;;;;;;28.00;41.70;95293.06;4967772;28;20019;-73
2021/07/26 10:21:00;;;;;;;3.42;2.45;;;;;;;28.01;41.72;95288.31;4968019;28;20019;-72
2021/07/26 10:23:37;;;;;;;4.07;2.60;;;;;;;28.03;42.08;95291.28;4982475;28;20081;-72
2021/07/26 10:26:08;;;;;;;3.53;2.30;;;;;;;28.08;41.63;95288.41;4966374;28;20158;-71
2021/07/26 10:28:57;;;;;;;4.15;2.63;;;;;;;28.13;41.50;95273.84;4933807;28;20097;-72
2021/07/26 10:31:28;;;;;;;4.05;2.53;;;;;;;28.18;41.17;95275.00;4960937;28;20125;-73
2021/07/26 10:34:22;;;;;;;3.35;2.60;;;;;;;28.17;41.46;95268.75;4962278;28;20037;-71
2021/07/26 10:36:49;;;;;;;4.10;2.38;;;;;;;27.93;41.25;95227.84;4946122;28;20034;-70
2021/07/26 10:39:14;;;;;;;2.85;2.10;;;;;;;28.25;40.87;95264.06;4949400;28;20270;-71
2021/07/26 10:41:43;;;;;;;3.40;2.20;;;;;;;28.25;41.23;95270.28;4949585;28;20027;-71
2021/07/26 10:44:17;;;;;;;2.88;2.22;;;;;;;28.26;40.50;95258.03;4957143;28;20046;-70
2021/07/26 10:47:04;;;;;;;3.92;2.70;;;;;;;28.25;40.33;95258.56;4965887;28;20027;-70
2021/07/26 10:49:47;;;;;;;3.30;2.22;;;;;;;28.26;40.43;95265.53;4947972;28;20509;-70
2021/07/26 10:52:22;;;;;;;3.38;2.13;;;;;;;28.23;40.77;95254.88;4962721;28;20824;-70
2021/07/26 10:54:47;;;;;;;3.05;2.15;;;;;;;28.22;40.22;95265.16;4957993;28;20453;-70
2021/07/26 10:57:14;;;;;;;3.13;2.58;;;;;;;28.13;40.78;95257.38;4938789;28;20031;-70
2021/07/26 11:00:11;;;;;;;3.03;2.40;;;;;;;28.12;40.19;95255.16;4947992;28;20030;-70
2021/07/26 11:02:47;;;;;;;4.20;2.40;;;;;;;27.73;40.82;95209.34;4960385;28;20146;-70
2021/07/26 11:05:27;;;;;;;3.80;2.50;;;;;;;28.00;40.34;95254.63;4947183;28;20576;-70
2021/07/26 11:08:12;;;;;;;3.45;2.35;;;;;;;27.93;40.37;95255.28;4959771;28;20075;-70
2021/07/26 11:10:57;;;;;;;2.92;2.33;;;;;;;27.83;40.77;95259.00;4952018;28;20608;-70
2021/07/26 11:13:23;;;;;;;3.95;2.67;;;;;;;27.72;40.99;95239.31;4966802;28;20697;-70
2021/07/26 11:15:55;;;;;;;3.88;2.50;;;;;;;27.72;40.66;95250.31;4955559;28;20059;-70
2021/07/26 11:18:40;;;;;;;4.10;2.17;;;;;;;27.67;40.76;95242.91;4959601;28;20051;-70
2021/07/26 11:21:09;;;;;;;3.75;2.58;;;;;;;27.53;40.93;95238.72;4960840;28;20043;-70
2021/07/26 11:23:38;;;;;;;3.28;2.35;;;;;;;27.54;41.43;95248.44;4946457;28;20100;-70
2021/07/26 11:26:04;;;;;;;3.20;2.13;;;;;;;27.29;40.96;95219.75;4962103;28;20043;-70
2021/07/26 11:28:36;;;;;;;4.00;2.30;;;;;;;27.41;41.45;95242.94;4926859;28;20062;-70
2021/07/26 11:31:03;;;;;;;3.63;2.63;;;;;;;27.37;41.02;95243.28;4958038;28;20402;-70
2021/07/26 11:33:29;;;;;;;3.50;2.40;;;;;;;27.38;41.03;95246.75;4953792;28;20456;-70
2021/07/26 11:35:54;;;;;;;3.22;2.20;;;;;;;27.35;41.17;95239.59;4958454;28;20547;-70
2021/07/26 11:38:20;;;;;;;3.22;2.55;;;;;;;27.27;41.52;95225.03;4963312;28;20026;-71
2021/07/26 11:40:45;;;;;;;3.55;2.90;;;;;;;27.22;41.02;95219.66;4955140;28;20517;-70